Time;durP1;ratioP1;P1;durP2;ratioP2;P2;SDS_P1;SDS_P2;PMS_P1;PMS_P2;Temp;Humidity;BMP_temperature;BMP_pressure;BME280_temperature;BME280_humidity;BME280_pressure;Samples;Min_cycle;Max_cycle;Signal;HPM_P1;HPM_P2
2021/11/19 00:01:57;;;;;;;10.40;3.60;;;8.30;1.00;;;;;;5014920;28;20400;-74
2021/11/19 00:04:24;;;;;;;5.23;3.20;;;8.30;1.00;;;;;;5015068;28;20438;-74
2021/11/19 00:06:50;;;;;;;8.37;3.50;;;8.30;1.00;;;;;;5011585;28;20507;-74
2021/11/19 00:09:17;;;;;;;6.00;3.30;;;8.30;1.00;;;;;;5014048;28;20527;-74
2021/11/19 00:11:46;;;;;;;13.53;3.50;;;8.30;1.00;;;;;;5014378;28;20423;-74
2021/11/19 00:14:12;;;;;;;10.27;3.23;;;8.30;1.00;;;;;;5014315;28;20432;-74
2021/11/19 00:16:57;;;;;;;8.90;3.13;;;8.30;1.00;;;;;;5014687;28;20779;-74
2021/11/19 00:19:25;;;;;;;8.60;3.70;;;8.30;1.00;;;;;;5015076;28;20475;-76
2021/11/19 00:21:51;;;;;;;7.10;3.30;;;8.30;1.00;;;;;;5014374;28;20412;-77
2021/11/19 00:24:23;;;;;;;9.00;3.30;;;8.30;1.00;;;;;;5014729;28;20415;-76
2021/11/19 00:27:19;;;;;;;14.33;3.83;;;8.30;1.00;;;;;;5014368;28;20448;-76
2021/11/19 00:29:45;;;;;;;11.43;3.60;;;8.30;1.00;;;;;;5013678;28;20743;-77
2021/11/19 00:32:47;;;;;;;6.13;3.13;;;8.30;1.00;;;;;;5014098;28;20420;-76
2021/11/19 00:35:18;;;;;;;8.97;3.57;;;8.20;1.00;;;;;;5014274;28;20424;-74
2021/11/19 00:37:46;;;;;;;8.03;3.50;;;8.20;1.00;;;;;;5014285;28;20425;-74
2021/11/19 00:40:22;;;;;;;16.93;3.87;;;8.20;1.00;;;;;;5002797;28;20451;-74
2021/11/19 00:42:47;;;;;;;5.17;3.37;;;8.20;1.00;;;;;;4996144;28;20440;-74
2021/11/19 00:45:14;;;;;;;6.87;3.40;;;;;;;;;;5013727;28;20416;-74
2021/11/19 00:47:39;;;;;;;5.07;3.40;;;8.20;1.00;;;;;;5013613;28;20201;-74
2021/11/19 00:50:10;;;;;;;7.80;3.47;;;8.20;1.00;;;;;;5013786;28;20439;-77
2021/11/19 00:53:16;;;;;;;4.77;3.00;;;8.20;1.00;;;;;;5013721;28;20185;-77
2021/11/19 00:55:47;;;;;;;9.27;3.87;;;8.30;1.00;;;;;;5013974;28;20424;-78
2021/11/19 01:02:00;;;;;;;3.87;2.80;;;8.30;1.00;;;;;;5003409;28;20438;-77
2021/11/19 01:04:26;;;;;;;8.10;4.27;;;8.30;1.00;;;;;;5014293;28;20470;-74
2021/11/19 01:07:06;;;;;;;9.60;4.67;;;8.30;1.00;;;;;;5009389;28;20509;-74
2021/11/19 01:09:35;;;;;;;11.50;4.97;;;8.30;1.00;;;;;;5010664;28;20416;-74
2021/11/19 01:12:03;;;;;;;14.27;5.20;;;8.20;1.00;;;;;;5013606;28;20481;-74
2021/11/19 01:14:41;;;;;;;9.07;5.10;;;8.20;1.00;;;;;;5013967;28;20511;-74
2021/11/19 01:17:19;;;;;;;9.30;4.50;;;8.20;1.00;;;;;;5009082;28;20838;-74
2021/11/19 01:20:00;;;;;;;13.07;6.17;;;8.30;1.00;;;;;;5006666;28;20949;-77
2021/11/19 01:22:32;;;;;;;16.00;5.93;;;8.20;1.00;;;;;;5003675;28;20412;-76
2021/11/19 01:24:57;;;;;;;14.33;5.70;;;8.10;1.00;;;;;;5009552;28;20470;-77
2021/11/19 01:27:52;;;;;;;10.87;5.20;;;8.10;1.00;;;;;;5013754;28;20509;-77
2021/11/19 01:30:27;;;;;;;12.40;5.37;;;8.00;1.00;;;;;;5012493;28;20185;-76
2021/11/19 01:33:05;;;;;;;15.50;6.43;;;;;;;;;;5013572;28;20408;-77
2021/11/19 01:35:31;;;;;;;12.30;5.93;;;7.90;1.00;;;;;;5014201;28;20384;-74
2021/11/19 01:37:59;;;;;;;17.07;6.43;;;7.90;1.00;;;;;;5013535;28;20420;-74
2021/11/19 01:40:32;;;;;;;10.37;6.70;;;7.80;1.00;;;;;;5013183;28;20452;-74
2021/11/19 01:43:02;;;;;;;11.50;5.73;;;7.80;1.00;;;;;;5013600;28;20431;-74
2021/11/19 01:45:49;;;;;;;12.43;6.00;;;7.80;1.00;;;;;;5013375;28;20423;-74
2021/11/19 01:48:22;;;;;;;14.70;5.87;;;7.80;1.00;;;;;;5006809;28;20518;-75
2021/11/19 01:51:10;;;;;;;11.70;5.57;;;7.90;1.00;;;;;;5009370;28;20427;-74
2021/11/19 01:53:43;;;;;;;8.17;5.40;;;7.90;1.00;;;;;;5013438;28;20423;-74
2021/11/19 01:56:24;;;;;;;7.97;5.57;;;7.90;1.00;;;;;;5011783;28;20495;-74
2021/11/19 01:59:12;;;;;;;14.53;6.30;;;7.90;1.00;;;;;;5013539;28;20778;-74
2021/11/19 02:01:46;;;;;;;14.33;5.63;;;7.90;1.00;;;;;;5004186;28;20424;-74
2021/11/19 02:04:16;;;;;;;12.00;6.30;;;7.90;1.00;;;;;;5013908;28;20443;-74
2021/11/19 02:06:51;;;;;;;12.30;5.77;;;7.90;1.00;;;;;;5013471;28;20777;-74
2021/11/19 02:09:30;;;;;;;15.33;6.40;;;8.00;1.00;;;;;;5002756;28;20507;-74
2021/11/19 02:12:08;;;;;;;13.20;6.20;;;7.90;1.00;;;;;;5001841;28;20415;-74
2021/11/19 02:14:44;;;;;;;13.60;6.70;;;7.90;1.00;;;;;;5017052;28;20452;-74
2021/11/19 02:17:11;;;;;;;13.20;6.83;;;7.90;1.00;;;;;;5011993;28;20415;-74
2021/11/19 02:23:06;;;;;;;12.93;6.10;;;7.90;1.00;;;;;;5016692;28;20516;-77
2021/11/19 02:25:54;;;;;;;17.43;6.60;;;7.90;1.00;;;;;;4998946;28;20429;-77
2021/11/19 02:32:18;;;;;;;18.50;6.53;;;7.90;1.00;;;;;;5013759;28;20755;-77
2021/11/19 02:34:53;;;;;;;12.20;6.20;;;7.90;1.00;;;;;;5016808;28;20407;-74
2021/11/19 02:37:43;;;;;;;16.23;6.80;;;7.90;1.00;;;;;;5016741;28;20718;-74
2021/11/19 02:40:28;;;;;;;20.57;6.83;;;7.80;1.00;;;;;;5014353;28;20419;-74
2021/11/19 02:43:02;;;;;;;16.73;6.93;;;7.80;1.00;;;;;;5016445;28;20407;-74
2021/11/19 02:45:34;;;;;;;20.73;6.53;;;7.80;1.00;;;;;;5016323;28;20418;-74
2021/11/19 02:48:04;;;;;;;19.13;7.57;;;7.90;1.00;;;;;;5016050;28;20471;-74
2021/11/19 02:50:41;;;;;;;24.63;7.50;;;7.90;1.00;;;;;;5016359;28;20439;-75
2021/11/19 02:53:12;;;;;;;12.43;7.00;;;7.90;1.00;;;;;;5016443;28;20897;-74
2021/11/19 02:55:44;;;;;;;22.93;8.00;;;7.90;1.00;;;;;;5016162;28;20408;-74
2021/11/19 02:58:35;;;;;;;17.23;7.10;;;7.90;1.00;;;;;;5003918;28;20493;-74
2021/11/19 03:01:13;;;;;;;12.40;6.80;;;7.90;1.00;;;;;;5015882;28;20919;-74
2021/11/19 03:03:41;;;;;;;15.50;7.00;;;7.90;1.00;;;;;;5016017;28;20466;-74
2021/11/19 03:13:30;;;;;;;17.90;8.07;;;7.90;1.00;;;;;;5004070;28;20462;-76
2021/11/19 03:15:59;;;;;;;21.53;8.20;;;7.80;1.00;;;;;;5011027;28;20778;-77
2021/11/19 03:21:48;;;;;;;14.77;7.23;;;7.80;1.00;;;;;;5011744;28;20407;-76
2021/11/19 03:27:54;;;;;;;19.53;7.80;;;7.80;1.00;;;;;;4995838;28;20987;-76
2021/11/19 03:30:42;;;;;;;15.10;7.90;;;7.90;1.00;;;;;;5015286;28;20432;-76
2021/11/19 03:33:13;;;;;;;15.30;7.80;;;7.90;1.00;;;;;;5015401;28;20404;-76
2021/11/19 03:36:16;;;;;;;19.93;8.83;;;7.90;1.00;;;;;;5015406;28;20412;-77
2021/11/19 03:39:22;;;;;;;17.90;8.20;;;7.90;1.00;;;;;;5002977;28;20450;-77
2021/11/19 03:45:14;;;;;;;18.40;7.57;;;7.90;1.00;;;;;;5002802;28;20431;-77
2021/11/19 03:47:43;;;;;;;18.50;8.40;;;7.90;1.00;;;;;;5015019;28;20472;-77
2021/11/19 03:50:24;;;;;;;21.60;8.40;;;8.00;1.00;;;;;;5015260;28;20460;-74
2021/11/19 03:52:50;;;;;;;16.77;8.20;;;8.00;1.00;;;;;;5015088;28;20844;-74
2021/11/19 03:55:20;;;;;;;16.73;8.20;;;7.90;1.00;;;;;;5014603;28;20778;-74
2021/11/19 03:57:48;;;;;;;19.57;7.30;;;7.90;1.00;;;;;;5015093;28;20470;-74
2021/11/19 04:00:25;;;;;;;16.93;8.17;;;7.90;1.00;;;;;;5014771;28;20497;-74
2021/11/19 04:02:52;;;;;;;25.43;8.87;;;7.90;1.00;;;;;;5014976;28;20566;-74
2021/11/19 04:05:41;;;;;;;12.53;7.70;;;7.90;1.00;;;;;;5015048;28;20890;-77
2021/11/19 04:08:29;;;;;;;23.10;9.07;;;7.80;1.00;;;;;;5014961;28;20455;-77
2021/11/19 04:10:55;;;;;;;21.00;8.20;;;7.90;1.00;;;;;;5013260;28;20869;-77
2021/11/19 04:13:41;;;;;;;17.63;8.00;;;7.90;1.00;;;;;;5014919;28;20523;-77
2021/11/19 04:16:27;;;;;;;22.93;8.43;;;7.90;1.00;;;;;;5001278;28;20181;-77
2021/11/19 04:19:47;;;;;;;14.93;8.00;;;7.90;1.00;;;;;;5013256;28;20424;-76
2021/11/19 04:22:23;;;;;;;16.13;7.97;;;7.80;1.00;;;;;;5014195;28;20926;-77
2021/11/19 04:25:28;;;;;;;20.00;7.73;;;7.90;1.00;;;;;;5014412;28;20403;-76
2021/11/19 04:31:19;;;;;;;21.13;8.23;;;7.90;1.00;;;;;;5013494;28;20435;-76
2021/11/19 04:33:53;;;;;;;14.73;7.50;;;7.90;1.00;;;;;;5014277;28;20500;-76
2021/11/19 04:36:23;;;;;;;16.33;8.07;;;7.80;1.00;;;;;;5014123;28;20738;-74
2021/11/19 04:38:49;;;;;;;19.53;8.27;;;7.80;1.00;;;;;;5003480;28;20416;-74
2021/11/19 04:41:17;;;;;;;29.80;8.57;;;7.90;1.00;;;;;;5013845;28;20431;-74
2021/11/19 04:43:53;;;;;;;23.07;9.37;;;7.90;1.00;;;;;;4994966;28;20559;-74
2021/11/19 04:46:19;;;;;;;15.40;7.97;;;7.90;1.00;;;;;;5006871;28;20529;-74
2021/11/19 04:48:45;;;;;;;18.30;8.50;;;8.00;1.00;;;;;;4994802;28;20876;-74
2021/11/19 04:51:16;;;;;;;20.10;8.97;;;8.00;1.00;;;;;;5009329;28;20169;-74
2021/11/19 04:54:00;;;;;;;17.50;7.67;;;8.00;1.00;;;;;;5014263;28;20392;-74
2021/11/19 04:56:35;;;;;;;21.97;8.30;;;8.00;1.00;;;;;;5011203;28;20443;-74
2021/11/19 04:59:12;;;;;;;23.60;8.37;;;8.00;1.00;;;;;;5014045;28;20399;-74
2021/11/19 05:01:43;;;;;;;17.63;8.30;;;8.10;1.00;;;;;;5014191;28;20419;-74
2021/11/19 05:04:23;;;;;;;14.13;8.30;;;8.10;1.00;;;;;;5013138;28;20922;-74
2021/11/19 05:10:17;;;;;;;15.77;7.13;;;8.20;1.00;;;;;;5007526;28;20399;-76
2021/11/19 05:16:18;;;;;;;13.20;7.80;;;8.20;1.00;;;;;;5002051;28;20540;-77
2021/11/19 05:18:45;;;;;;;19.13;7.70;;;8.10;1.00;;;;;;5011131;28;20432;-77
2021/11/19 05:21:19;;;;;;;13.23;7.57;;;8.10;1.00;;;;;;5013912;28;20894;-75
2021/11/19 05:23:46;;;;;;;15.37;7.70;;;8.10;1.00;;;;;;5012865;28;20459;-76
2021/11/19 05:26:13;;;;;;;20.70;7.80;;;8.20;1.00;;;;;;5001235;28;20405;-74
2021/11/19 05:28:40;;;;;;;15.63;7.33;;;8.20;1.00;;;;;;5011916;28;20438;-74
2021/11/19 05:31:14;;;;;;;14.67;8.37;;;8.20;1.00;;;;;;5013765;28;20423;-75
2021/11/19 05:33:53;;;;;;;17.40;8.83;;;8.20;1.00;;;;;;5013427;28;20431;-75
2021/11/19 05:39:40;;;;;;;23.00;8.13;;;8.20;1.00;;;;;;5013563;28;20379;-77
2021/11/19 05:42:07;;;;;;;15.13;7.00;;;8.20;1.00;;;;;;5013395;28;20507;-77
2021/11/19 05:45:28;;;;;;;23.70;8.93;;;8.20;1.00;;;;;;5016350;28;20259;-78
2021/11/19 05:48:16;;;;;;;19.60;8.77;;;8.20;1.00;;;;;;5017005;28;20505;-77
2021/11/19 05:50:59;;;;;;;17.73;8.73;;;8.20;1.00;;;;;;5017699;28;20419;-78
2021/11/19 05:53:29;;;;;;;18.90;8.90;;;8.20;1.00;;;;;;5017185;28;20419;-78
2021/11/19 05:56:05;;;;;;;16.03;8.83;;;8.20;1.00;;;;;;5017229;28;20478;-77
2021/11/19 05:58:47;;;;;;;13.37;8.00;;;8.20;1.00;;;;;;5008587;28;20431;-77
2021/11/19 06:01:41;;;;;;;22.10;9.50;;;8.20;1.00;;;;;;4997546;28;20396;-77
2021/11/19 06:04:07;;;;;;;17.67;8.10;;;8.20;1.00;;;;;;5014871;28;20470;-77
2021/11/19 06:09:54;;;;;;;17.03;8.07;;;8.10;1.00;;;;;;5017012;28;20419;-77
2021/11/19 06:12:28;;;;;;;18.07;8.10;;;8.10;1.00;;;;;;5016827;28;20755;-77
2021/11/19 06:18:37;;;;;;;19.40;9.23;;;8.10;1.00;;;;;;5013396;28;20466;-77
2021/11/19 06:21:35;;;;;;;24.03;9.30;;;8.00;1.00;;;;;;5016683;28;20418;-77
2021/11/19 06:24:46;;;;;;;24.30;9.50;;;8.00;1.00;;;;;;5016386;28;20502;-77
2021/11/19 06:30:35;;;;;;;21.00;10.30;;;8.00;1.00;;;;;;4998999;28;20443;-78
2021/11/19 06:36:42;;;;;;;20.50;9.47;;;8.00;1.00;;;;;;5016546;28;20470;-75
2021/11/19 06:39:09;;;;;;;19.87;9.87;;;8.00;1.00;;;;;;5016559;28;20423;-75
2021/11/19 06:41:42;;;;;;;23.97;10.63;;;8.00;1.00;;;;;;5016548;28;20424;-78
2021/11/19 06:44:11;;;;;;;21.23;10.40;;;8.00;1.00;;;;;;5015024;28;20424;-75
2021/11/19 06:46:38;;;;;;;23.93;11.40;;;8.00;1.00;;;;;;5016097;28;21021;-74
2021/11/19 06:49:06;;;;;;;38.63;10.47;;;8.00;1.00;;;;;;5015512;28;20436;-74
2021/11/19 06:51:33;;;;;;;23.43;10.30;;;8.00;1.00;;;;;;5015903;28;20432;-73
2021/11/19 06:53:59;;;;;;;25.47;11.57;;;8.00;1.00;;;;;;5014013;28;20436;-74
2021/11/19 06:56:25;;;;;;;25.33;11.20;;;8.00;1.00;;;;;;5025105;28;20435;-74
2021/11/19 06:58:59;;;;;;;26.30;10.07;;;8.00;1.00;;;;;;5016214;28;20404;-77
2021/11/19 07:01:25;;;;;;;36.27;11.07;;;8.00;1.00;;;;;;5016216;28;20474;-74
2021/11/19 07:04:05;;;;;;;26.17;10.10;;;8.10;1.00;;;;;;5016261;28;20495;-74
2021/11/19 07:06:38;;;;;;;30.23;10.50;;;8.10;1.00;;;;;;5015790;28;20896;-76
2021/11/19 07:12:41;;;;;;;28.53;11.13;;;8.10;1.00;;;;;;5016219;28;20394;-77
2021/11/19 07:15:09;;;;;;;18.70;10.67;;;8.10;1.00;;;;;;5015552;28;20477;-77
2021/11/19 07:21:11;;;;;;;30.80;12.17;;;8.10;1.00;;;;;;5008129;28;20446;-77
2021/11/19 07:23:41;;;;;;;27.23;10.50;;;8.10;1.00;;;;;;5015768;28;20424;-77
2021/11/19 07:26:58;;;;;;;31.67;11.50;;;8.10;1.00;;;;;;5015009;28;20430;-77
2021/11/19 07:29:43;;;;;;;22.67;11.10;;;8.20;1.00;;;;;;5015063;28;20907;-77
2021/11/19 07:32:23;;;;;;;24.00;11.40;;;8.10;1.00;;;;;;5015423;28;20396;-77
2021/11/19 07:35:11;;;;;;;31.23;12.17;;;8.10;1.00;;;;;;5014939;28;20524;-77
2021/11/19 07:38:11;;;;;;;20.87;11.03;;;8.20;1.00;;;;;;5008788;28;20430;-76
2021/11/19 07:43:58;;;;;;;22.43;10.53;;;8.30;1.00;;;;;;5006765;28;20454;-76
2021/11/19 07:46:59;;;;;;;27.13;11.20;;;8.30;1.00;;;;;;5015122;28;20918;-76
2021/11/19 07:49:24;;;;;;;31.77;13.10;;;8.20;1.00;;;;;;5015170;28;20194;-77
2021/11/19 07:52:05;;;;;;;24.67;11.30;;;8.20;1.00;;;;;;5015183;28;20423;-76
2021/11/19 07:54:52;;;;;;;29.60;11.90;;;8.20;1.00;;;;;;5011228;28;20189;-77
2021/11/19 07:57:29;;;;;;;20.37;10.50;;;8.20;1.00;;;;;;5020314;28;20420;-76
2021/11/19 07:59:55;;;;;;;23.13;10.80;;;8.30;1.00;;;;;;5014374;28;20511;-76
2021/11/19 08:02:21;;;;;;;28.37;11.07;;;8.30;1.00;;;;;;5015136;28;20436;-77
2021/11/19 08:08:40;;;;;;;35.20;12.57;;;8.50;1.00;;;;;;5005413;28;20741;-77
2021/11/19 08:11:29;;;;;;;24.63;10.10;;;8.50;1.00;;;;;;5012860;28;20435;-76
2021/11/19 08:14:17;;;;;;;26.00;11.20;;;8.50;1.00;;;;;;4999000;28;20542;-78
2021/11/19 08:16:53;;;;;;;20.37;10.80;;;8.60;1.00;;;;;;5008625;28;20518;-78
2021/11/19 08:19:30;;;;;;;29.50;11.00;;;8.60;1.00;;;;;;5012849;28;20427;-78
2021/11/19 08:21:58;;;;;;;28.13;10.40;;;8.60;1.00;;;;;;5011424;28;20428;-77
2021/11/19 08:24:26;;;;;;;16.80;9.73;;;8.60;1.00;;;;;;5013164;28;20482;-77
2021/11/19 08:26:55;;;;;;;20.50;11.20;;;8.50;1.00;;;;;;5000199;28;20453;-77
2021/11/19 08:29:28;;;;;;;19.00;10.50;;;8.50;1.00;;;;;;5012159;28;20760;-76
2021/11/19 08:32:01;;;;;;;22.10;9.87;;;8.50;1.00;;;;;;5013276;28;20923;-79
2021/11/19 08:34:27;;;;;;;21.80;10.43;;;8.50;1.00;;;;;;5014080;28;20938;-79
2021/11/19 08:36:53;;;;;;;20.37;10.83;;;8.40;1.00;;;;;;5013441;28;20910;-77
2021/11/19 08:39:35;;;;;;;23.47;11.37;;;8.40;1.00;;;;;;5014648;28;20413;-74
2021/11/19 08:42:01;;;;;;;20.07;10.63;;;8.40;1.00;;;;;;5007759;28;20419;-75
2021/11/19 08:44:29;;;;;;;28.80;10.30;;;;;;;;;;5013945;28;20865;-74
2021/11/19 08:46:56;;;;;;;32.07;11.57;;;8.50;1.00;;;;;;5014280;28;20452;-74
2021/11/19 08:49:24;;;;;;;21.23;9.60;;;;;;;;;;5014038;28;20440;-73
2021/11/19 08:51:51;;;;;;;25.23;10.80;;;;;;;;;;5013554;28;20431;-74
2021/11/19 08:54:17;;;;;;;27.10;10.97;;;;;;;;;;5013808;28;20419;-74
2021/11/19 08:56:54;;;;;;;24.83;11.70;;;8.60;1.00;;;;;;5020992;28;20427;-73
2021/11/19 08:59:22;;;;;;;23.93;10.60;;;8.60;1.00;;;;;;5014027;28;20514;-74
2021/11/19 09:01:54;;;;;;;20.37;11.07;;;8.60;1.00;;;;;;5008209;28;20712;-73
2021/11/19 09:04:23;;;;;;;25.70;10.57;;;8.60;1.00;;;;;;5012628;28;20431;-75
2021/11/19 09:06:50;;;;;;;20.80;10.27;;;;;;;;;;5012618;28;20938;-73
2021/11/19 09:09:54;;;;;;;23.63;11.27;;;8.70;1.00;;;;;;5013811;28;20454;-76
2021/11/19 09:12:23;;;;;;;17.00;9.60;;;8.80;1.00;;;;;;5013802;28;20982;-76
2021/11/19 09:14:49;;;;;;;18.00;9.40;;;8.80;1.00;;;;;;5013781;28;20495;-76
2021/11/19 09:17:24;;;;;;;17.93;9.90;;;8.70;1.00;;;;;;5008382;28;20539;-76
2021/11/19 09:20:07;;;;;;;22.97;10.03;;;8.70;1.00;;;;;;5016681;28;20655;-77
2021/11/19 09:23:14;;;;;;;28.27;11.10;;;8.70;1.00;;;;;;5016767;28;20435;-77
2021/11/19 09:25:44;;;;;;;18.80;9.87;;;8.70;1.00;;;;;;5006196;28;20416;-74
2021/11/19 09:28:11;;;;;;;20.07;9.90;;;8.70;1.00;;;;;;5010781;28;20459;-74
2021/11/19 09:30:41;;;;;;;19.53;9.80;;;8.70;1.00;;;;;;5017788;28;20404;-73
2021/11/19 09:33:09;;;;;;;25.53;9.73;;;;;;;;;;5017264;28;20462;-74
2021/11/19 09:35:35;;;;;;;20.30;9.80;;;8.80;1.00;;;;;;5007606;28;20428;-74
2021/11/19 09:38:24;;;;;;;26.30;11.97;;;8.80;1.00;;;;;;5017703;28;20527;-76
2021/11/19 09:40:59;;;;;;;18.13;9.90;;;;;;;;;;5017536;28;20392;-77
2021/11/19 09:43:43;;;;;;;22.33;10.87;;;8.80;1.00;;;;;;5008233;28;20430;-77
2021/11/19 09:46:53;;;;;;;39.83;11.83;;;8.80;1.00;;;;;;5010343;28;20842;-77
2021/11/19 09:50:11;;;;;;;23.93;10.40;;;8.80;1.00;;;;;;5000372;28;20474;-77
2021/11/19 09:53:14;;;;;;;19.47;10.63;;;8.80;1.00;;;;;;5017021;28;20436;-77
2021/11/19 09:56:22;;;;;;;19.70;10.67;;;8.80;1.00;;;;;;5016738;28;20936;-73
2021/11/19 09:58:57;;;;;;;22.40;9.77;;;8.90;1.00;;;;;;5017131;28;20438;-73
2021/11/19 10:02:00;;;;;;;18.73;9.53;;;8.90;1.00;;;;;;5013331;28;20434;-73
2021/11/19 10:04:50;;;;;;;25.40;10.50;;;8.90;1.00;;;;;;5002302;28;20933;-77
2021/11/19 10:07:42;;;;;;;20.80;9.13;;;9.00;1.00;;;;;;5013076;28;20554;-74
2021/11/19 10:10:26;;;;;;;35.77;13.17;;;;;;;;;;4999490;28;20906;-73
2021/11/19 10:13:15;;;;;;;23.27;11.10;;;9.20;1.00;;;;;;5004704;28;20502;-74
2021/11/19 10:16:03;;;;;;;54.47;18.40;;;9.30;1.00;;;;;;5014428;28;20431;-74
2021/11/19 10:18:30;;;;;;;39.47;13.70;;;;;;;;;;5015544;28;20943;-74
2021/11/19 10:21:23;;;;;;;29.23;12.90;;;;;;;;;;5013647;28;20412;-74
2021/11/19 10:23:51;;;;;;;28.93;9.73;;;;;;;;;;5014743;28;20439;-77
2021/11/19 10:26:22;;;;;;;28.47;10.57;;;;;;;;;;5008302;28;20758;-77
2021/11/19 10:29:00;;;;;;;30.90;9.20;;;;;;;;;;5015582;28;20889;-77
2021/11/19 10:31:27;;;;;;;28.10;12.97;;;;;;;;;;5015563;28;20416;-77
2021/11/19 10:34:15;;;;;;;22.20;9.50;;;;;;;;;;5015649;28;20442;-77
2021/11/19 10:36:48;;;;;;;18.50;7.70;;;;;;;;;;5015473;28;20415;-77
2021/11/19 10:39:14;;;;;;;25.40;9.50;;;;;;;;;;5015658;28;20902;-77
2021/11/19 10:41:59;;;;;;;37.57;10.97;;;;;;;;;;5015650;28;20424;-77
2021/11/19 10:44:31;;;;;;;34.87;10.60;;;;;;;;;;5012959;28;20470;-77
2021/11/19 10:47:18;;;;;;;29.93;10.30;;;;;;;;;;5015464;28;20470;-77
2021/11/19 10:49:56;;;;;;;28.40;10.00;;;;;;;;;;5015957;28;20502;-77
2021/11/19 10:52:47;;;;;;;17.97;9.47;;;9.90;1.00;;;;;;5015222;28;20408;-77
2021/11/19 10:55:47;;;;;;;13.27;8.20;;;9.90;1.00;;;;;;5022834;28;20425;-74
2021/11/19 10:58:29;;;;;;;15.67;8.50;;;9.90;1.00;;;;;;5005049;28;20758;-74
2021/11/19 11:01:12;;;;;;;14.77;9.13;;;10.00;1.00;;;;;;5015125;28;20494;-74
2021/11/19 11:03:53;;;;;;;15.07;8.10;;;9.90;1.00;;;;;;5014996;28;20419;-74
2021/11/19 11:06:19;;;;;;;14.07;8.30;;;;;;;;;;5009494;28;20429;-74
2021/11/19 11:08:47;;;;;;;17.70;9.03;;;10.00;1.00;;;;;;5010815;28;20771;-76
2021/11/19 11:11:30;;;;;;;15.90;8.47;;;10.10;1.00;;;;;;5015007;28;20416;-77
2021/11/19 11:13:56;;;;;;;15.23;8.27;;;;;;;;;;5014142;28;20780;-77
2021/11/19 11:16:25;;;;;;;16.23;8.60;;;10.30;1.00;;;;;;5009106;28;20912;-77
2021/11/19 11:18:50;;;;;;;18.60;8.70;;;10.30;1.00;;;;;;5006220;28;20468;-77
2021/11/19 11:21:40;;;;;;;23.30;8.47;;;10.40;1.00;;;;;;5012721;28;20517;-77
2021/11/19 11:24:20;;;;;;;16.43;6.93;;;10.50;1.00;;;;;;5013638;28;20177;-74
2021/11/19 11:27:00;;;;;;;13.17;7.40;;;10.50;1.00;;;;;;5011311;28;20459;-74
2021/11/19 11:29:40;;;;;;;13.33;7.43;;;10.60;1.00;;;;;;5014483;28;20925;-74
2021/11/19 11:32:28;;;;;;;17.23;7.53;;;10.60;1.00;;;;;;5014856;28;20523;-74
2021/11/19 11:35:00;;;;;;;12.20;6.47;;;10.50;1.00;;;;;;5013308;28;20459;-73
2021/11/19 11:37:52;;;;;;;13.70;6.40;;;10.60;1.00;;;;;;5013002;28;20490;-74
2021/11/19 11:40:28;;;;;;;10.50;6.60;;;10.60;1.00;;;;;;5014284;28;20423;-77
2021/11/19 11:43:30;;;;;;;11.37;6.87;;;10.80;1.00;;;;;;5013113;28;20420;-76
2021/11/19 11:46:21;;;;;;;10.57;6.57;;;11.00;1.00;;;;;;4989878;28;20528;-76
2021/11/19 11:49:15;;;;;;;14.60;7.47;;;11.00;1.00;;;;;;4988638;28;20437;-77
2021/11/19 11:55:08;;;;;;;9.90;6.00;;;11.10;1.00;;;;;;4979680;28;20890;-77
2021/11/19 11:57:47;;;;;;;8.60;5.67;;;11.20;1.00;;;;;;4989201;28;20751;-78
2021/11/19 12:00:22;;;;;;;10.30;5.43;;;;;;;;;;4981013;28;20464;-77
2021/11/19 12:02:49;;;;;;;14.47;6.07;;;;;;;;;;4994156;28;20420;-77
2021/11/19 12:05:33;;;;;;;8.73;5.03;;;11.40;1.00;;;;;;4997549;28;20449;-77
2021/11/19 12:08:40;;;;;;;9.20;5.30;;;11.50;1.00;;;;;;4989430;28;20454;-78
2021/11/19 12:14:30;;;;;;;7.40;4.40;;;11.60;1.00;;;;;;4991616;28;20426;-78
2021/11/19 12:17:32;;;;;;;6.23;3.53;;;11.50;1.00;;;;;;5001076;28;20535;-79
2021/11/19 12:23:44;;;;;;;6.33;3.57;;;11.50;1.00;;;;;;5012787;28;20965;-79
2021/11/19 12:29:59;;;;;;;7.23;3.50;;;11.70;1.00;;;;;;5006761;28;20423;-79
2021/11/19 12:36:34;;;;;;;2.90;2.40;;;11.90;1.00;;;;;;5008420;28;20439;-79
2021/11/19 12:46:31;;;;;;;7.50;2.70;;;11.90;1.00;;;;;;4952698;29;20466;-79
2021/11/19 12:49:51;;;;;;;2.63;2.30;;;11.90;1.00;;;;;;4881007;29;20986;-79
2021/11/19 12:56:23;;;;;;;3.17;2.20;;;11.80;1.00;;;;;;4857652;29;20806;-74
2021/11/19 12:58:57;;;;;;;12.67;6.03;;;11.70;1.00;;;;;;4853021;29;20481;-73
2021/11/19 13:02:02;;;;;;;1.80;1.70;;;11.80;1.00;;;;;;4859944;29;20789;-72
2021/11/19 13:04:37;;;;;;;1.87;1.70;;;11.70;1.00;;;;;;4798699;29;20526;-73
2021/11/19 13:07:34;;;;;;;2.67;1.60;;;11.70;1.00;;;;;;4787115;29;20521;-74
2021/11/19 13:10:23;;;;;;;6.93;1.93;;;11.60;1.00;;;;;;4781334;30;20846;-75
2021/11/19 13:13:27;;;;;;;2.83;1.87;;;11.60;1.00;;;;;;4785086;29;20471;-73
2021/11/19 13:16:22;;;;;;;1.63;1.53;;;11.70;1.00;;;;;;4785979;30;20442;-74
2021/11/19 13:18:52;;;;;;;4.90;1.90;;;11.70;1.00;;;;;;4785452;30;20456;-72
2021/11/19 13:21:33;;;;;;;4.30;1.80;;;11.80;1.00;;;;;;4786349;30;20431;-74
2021/11/19 13:24:13;;;;;;;1.60;1.50;;;11.90;1.00;;;;;;4837345;29;20532;-73
2021/11/19 13:26:47;;;;;;;1.83;1.67;;;12.00;1.00;;;;;;4888892;29;20471;-72
2021/11/19 13:30:02;;;;;;;1.90;1.77;;;12.00;1.00;;;;;;4914741;29;20410;-77
2021/11/19 13:32:32;;;;;;;1.70;1.40;;;12.00;1.00;;;;;;4877636;29;20485;-74
2021/11/19 13:35:24;;;;;;;1.53;1.43;;;12.00;1.00;;;;;;4877566;29;20474;-73
2021/11/19 13:38:10;;;;;;;1.83;1.73;;;12.00;1.00;;;;;;4877760;29;20513;-75
2021/11/19 13:41:19;;;;;;;2.00;1.80;;;12.00;1.00;;;;;;4888476;29;20961;-75
2021/11/19 13:43:50;;;;;;;2.40;1.37;;;11.90;1.00;;;;;;4946289;29;20426;-74
2021/11/19 13:46:41;;;;;;;1.17;1.17;;;12.00;1.00;;;;;;4953275;29;20435;-75
2021/11/19 13:49:28;;;;;;;1.23;1.23;;;11.80;1.00;;;;;;4952933;29;20438;-75
2021/11/19 13:52:16;;;;;;;2.43;1.30;;;11.80;1.00;;;;;;4952859;29;20422;-76
2021/11/19 13:54:47;;;;;;;1.00;1.00;;;11.80;1.00;;;;;;4953112;29;20418;-75
2021/11/19 13:57:37;;;;;;;1.10;1.00;;;11.70;1.00;;;;;;4952948;29;20536;-82
2021/11/19 14:00:47;;;;;;;1.40;1.10;;;11.80;1.00;;;;;;4953044;29;20441;-76
2021/11/19 14:03:22;;;;;;;1.10;1.00;;;11.60;1.00;;;;;;4953403;28;20415;-75
2021/11/19 14:05:51;;;;;;;1.23;1.13;;;11.50;1.00;;;;;;4969510;28;20556;-75
2021/11/19 14:08:30;;;;;;;1.00;0.90;;;11.50;1.00;;;;;;5016993;28;20454;-76
2021/11/19 14:11:19;;;;;;;1.30;1.20;;;11.50;1.00;;;;;;5009361;28;20411;-75
2021/11/19 14:14:22;;;;;;;1.80;1.30;;;11.60;1.00;;;;;;5017095;28;20823;-75
2021/11/19 14:16:57;;;;;;;2.23;1.20;;;11.50;1.00;;;;;;5016786;28;20410;-76
2021/11/19 14:22:44;;;;;;;1.17;1.07;;;11.50;1.00;;;;;;5016877;28;20419;-75
2021/11/19 14:25:24;;;;;;;1.20;1.10;;;;;;;;;;5000093;28;20905;-75
2021/11/19 14:28:04;;;;;;;1.30;0.97;;;11.50;1.00;;;;;;5000077;28;20989;-73
2021/11/19 14:30:42;;;;;;;1.17;1.07;;;11.50;1.00;;;;;;4994613;28;20442;-73
2021/11/19 14:33:31;;;;;;;7.00;1.13;;;11.50;1.00;;;;;;4994698;28;20510;-73
2021/11/19 14:36:00;;;;;;;1.40;1.10;;;11.50;1.00;;;;;;5008017;28;20503;-73
2021/11/19 14:38:44;;;;;;;1.77;1.67;;;11.50;1.00;;;;;;5001129;28;20427;-73
2021/11/19 14:41:28;;;;;;;2.60;1.30;;;11.50;1.00;;;;;;4994601;28;20451;-73
2021/11/19 14:44:14;;;;;;;1.93;1.20;;;11.40;1.00;;;;;;5003944;28;20439;-73
2021/11/19 14:46:45;;;;;;;1.30;1.20;;;11.40;1.00;;;;;;4979101;28;20472;-73
2021/11/19 14:49:20;;;;;;;1.43;1.17;;;11.40;1.00;;;;;;4995588;28;20588;-73
2021/11/19 14:52:09;;;;;;;1.90;1.30;;;11.30;1.00;;;;;;5013694;28;20427;-73
2021/11/19 14:54:38;;;;;;;1.53;1.30;;;11.30;1.00;;;;;;4990025;28;20906;-73
2021/11/19 14:57:10;;;;;;;1.57;1.47;;;11.30;1.00;;;;;;5002288;28;20451;-75
2021/11/19 15:00:25;;;;;;;1.77;1.03;;;11.30;1.00;;;;;;5005535;28;20439;-75
2021/11/19 15:03:42;;;;;;;1.23;1.10;;;11.20;1.00;;;;;;4981924;28;20460;-75
2021/11/19 15:06:36;;;;;;;1.70;1.23;;;11.20;1.00;;;;;;4986100;28;20433;-75
2021/11/19 15:09:27;;;;;;;1.10;0.90;;;11.20;1.00;;;;;;4991332;28;20505;-76
2021/11/19 15:12:08;;;;;;;1.23;1.13;;;11.20;1.00;;;;;;5010305;28;20780;-76
2021/11/19 15:15:01;;;;;;;2.13;1.00;;;11.20;1.00;;;;;;4995019;28;20457;-76
2021/11/19 15:17:40;;;;;;;3.33;1.33;;;11.20;1.00;;;;;;4982053;28;20479;-78
2021/11/19 15:23:32;;;;;;;0.90;0.90;;;11.10;1.00;;;;;;4998738;28;20978;-75
2021/11/19 15:25:58;;;;;;;1.00;0.90;;;11.10;1.00;;;;;;4994013;28;20448;-73
2021/11/19 15:28:37;;;;;;;2.07;1.30;;;11.10;1.00;;;;;;5000478;28;20465;-73
2021/11/19 15:31:24;;;;;;;1.10;1.10;;;11.10;1.00;;;;;;4989866;28;20428;-73
2021/11/19 15:34:11;;;;;;;0.90;0.90;;;11.10;1.00;;;;;;4989218;28;20414;-73
2021/11/19 15:36:58;;;;;;;1.47;1.13;;;11.10;1.00;;;;;;4993160;28;20430;-73
2021/11/19 15:39:25;;;;;;;1.20;1.10;;;11.10;1.00;;;;;;4998227;28;20445;-73
2021/11/19 15:41:51;;;;;;;1.57;1.20;;;11.10;1.00;;;;;;5015328;28;20416;-73
2021/11/19 15:44:25;;;;;;;1.73;1.50;;;11.10;1.00;;;;;;5014566;28;20191;-73
2021/11/19 15:46:52;;;;;;;1.20;1.10;;;11.10;1.00;;;;;;5014944;28;20461;-73
2021/11/19 15:49:21;;;;;;;1.50;1.40;;;11.10;1.00;;;;;;5011344;28;20955;-73